sensor_id;sensor_type;location;lat;lon;timestamp;pressure;altitude;pressure_sealevel;temperature;humidity
36192;BME280;22233;42.708;23.360;2022-08-03T00:01:45;95452.16;;;22.29;55.11
36192;BME280;22233;42.708;23.360;2022-08-03T00:04:10;95452.38;;;21.99;55.91
36192;BME280;22233;42.708;23.360;2022-08-03T00:06:36;95458.38;;;22.15;55.54
36192;BME280;22233;42.708;23.360;2022-08-03T00:09:02;95444.88;;;22.03;55.90
36192;BME280;22233;42.708;23.360;2022-08-03T00:11:28;95455.56;;;22.04;55.75
36192;BME280;22233;42.708;23.360;2022-08-03T00:13:54;95454.38;;;22.05;55.85
36192;BME280;22233;42.708;23.360;2022-08-03T00:16:19;95451.63;;;22.02;56.18
36192;BME280;22233;42.708;23.360;2022-08-03T00:18:45;95436.25;;;22.08;55.81
36192;BME280;22233;42.708;23.360;2022-08-03T00:21:10;95431.06;;;22.03;55.51
36192;BME280;22233;42.708;23.360;2022-08-03T00:23:36;95436.25;;;22.08;55.90
36192;BME280;22233;42.708;23.360;2022-08-03T00:26:02;95442.47;;;21.94;55.99
36192;BME280;22233;42.708;23.360;2022-08-03T00:28:27;95453.56;;;21.98;55.98
36192;BME280;22233;42.708;23.360;2022-08-03T00:30:52;95448.75;;;21.91;55.97
36192;BME280;22233;42.708;23.360;2022-08-03T00:33:20;95441.13;;;21.70;56.40
36192;BME280;22233;42.708;23.360;2022-08-03T00:35:45;95438.41;;;21.73;56.04
36192;BME280;22233;42.708;23.360;2022-08-03T00:38:11;95434.81;;;21.69;56.34
36192;BME280;22233;42.708;23.360;2022-08-03T00:40:36;95444.78;;;21.81;56.31
36192;BME280;22233;42.708;23.360;2022-08-03T00:43:04;95436.63;;;21.47;56.99
36192;BME280;22233;42.708;23.360;2022-08-03T00:45:35;95444.81;;;21.40;57.23
36192;BME280;22233;42.708;23.360;2022-08-03T00:48:03;95451.59;;;21.46;57.34
36192;BME280;22233;42.708;23.360;2022-08-03T00:50:31;95443.72;;;21.48;57.19
36192;BME280;22233;42.708;23.360;2022-08-03T00:52:59;95450.44;;;21.51;56.87
36192;BME280;22233;42.708;23.360;2022-08-03T00:55:26;95449.63;;;21.43;57.20
36192;BME280;22233;42.708;23.360;2022-08-03T00:57:52;95439.59;;;21.28;57.53
36192;BME280;22233;42.708;23.360;2022-08-03T01:00:23;95438.69;;;21.17;57.99
36192;BME280;22233;42.708;23.360;2022-08-03T01:02:49;95448.69;;;21.32;57.51
36192;BME280;22233;42.708;23.360;2022-08-03T01:05:16;95451.78;;;21.27;57.75
36192;BME280;22233;42.708;23.360;2022-08-03T01:10:32;95446.97;;;21.17;57.38
36192;BME280;22233;42.708;23.360;2022-08-03T01:13:31;95449.41;;;21.22;57.80
36192;BME280;22233;42.708;23.360;2022-08-03T01:16:08;95438.75;;;21.24;57.69
36192;BME280;22233;42.708;23.360;2022-08-03T01:18:44;95426.94;;;21.27;57.19
36192;BME280;22233;42.708;23.360;2022-08-03T01:24:25;95439.59;;;21.28;58.09
36192;BME280;22233;42.708;23.360;2022-08-03T01:27:22;95443.50;;;21.23;57.97
36192;BME280;22233;42.708;23.360;2022-08-03T01:30:03;95448.56;;;21.18;58.36
36192;BME280;22233;42.708;23.360;2022-08-03T01:32:54;95450.34;;;20.95;59.08
36192;BME280;22233;42.708;23.360;2022-08-03T01:35:32;95419.09;;;20.88;59.18
36192;BME280;22233;42.708;23.360;2022-08-03T01:38:06;95443.75;;;20.70;60.15
36192;BME280;22233;42.708;23.360;2022-08-03T01:40:35;95428.69;;;20.64;60.02
36192;BME280;22233;42.708;23.360;2022-08-03T01:43:05;95435.84;;;20.68;59.96
36192;BME280;22233;42.708;23.360;2022-08-03T01:45:33;95439.41;;;20.69;59.94
36192;BME280;22233;42.708;23.360;2022-08-03T01:47:59;95447.28;;;20.67;60.25
36192;BME280;22233;42.708;23.360;2022-08-03T01:50:28;95441.34;;;20.65;60.10
36192;BME280;22233;42.708;23.360;2022-08-03T01:52:55;95439.59;;;20.53;60.43
36192;BME280;22233;42.708;23.360;2022-08-03T01:55:22;95437.78;;;20.64;60.42
36192;BME280;22233;42.708;23.360;2022-08-03T01:57:50;95440.16;;;20.66;60.25
36192;BME280;22233;42.708;23.360;2022-08-03T02:00:16;95435.38;;;20.59;60.85
36192;BME280;22233;42.708;23.360;2022-08-03T02:02:46;95435.94;;;20.75;60.41
36192;BME280;22233;42.708;23.360;2022-08-03T02:05:13;95433.25;;;20.83;59.80
36192;BME280;22233;42.708;23.360;2022-08-03T02:07:41;95435.41;;;20.63;60.15
36192;BME280;22233;42.708;23.360;2022-08-03T02:10:08;95440.56;;;20.68;60.55
36192;BME280;22233;42.708;23.360;2022-08-03T02:12:36;95434.28;;;20.67;60.41
36192;BME280;22233;42.708;23.360;2022-08-03T02:15:03;95445.41;;;20.74;60.29
36192;BME280;22233;42.708;23.360;2022-08-03T02:17:31;95435.56;;;20.77;60.21
36192;BME280;22233;42.708;23.360;2022-08-03T02:19:58;95437.53;;;20.77;60.24
36192;BME280;22233;42.708;23.360;2022-08-03T02:22:24;95436.84;;;20.87;60.08
36192;BME280;22233;42.708;23.360;2022-08-03T02:24:50;95426.00;;;20.67;60.05
36192;BME280;22233;42.708;23.360;2022-08-03T02:27:23;95431.41;;;20.60;60.41
36192;BME280;22233;42.708;23.360;2022-08-03T02:29:54;95430.72;;;20.70;60.30
36192;BME280;22233;42.708;23.360;2022-08-03T02:32:30;95434.00;;;20.80;60.63
36192;BME280;22233;42.708;23.360;2022-08-03T02:34:58;95444.31;;;20.86;60.53
36192;BME280;22233;42.708;23.360;2022-08-03T02:37:28;95430.88;;;20.81;60.09
36192;BME280;22233;42.708;23.360;2022-08-03T02:40:00;95424.66;;;20.91;59.57
36192;BME280;22233;42.708;23.360;2022-08-03T02:42:27;95428.91;;;20.82;60.52
36192;BME280;22233;42.708;23.360;2022-08-03T02:44:55;95429.69;;;20.82;60.57
36192;BME280;22233;42.708;23.360;2022-08-03T02:47:25;95429.72;;;20.86;60.48
36192;BME280;22233;42.708;23.360;2022-08-03T02:49:53;95436.91;;;20.94;60.16
36192;BME280;22233;42.708;23.360;2022-08-03T02:52:22;95426.22;;;20.89;60.20
36192;BME280;22233;42.708;23.360;2022-08-03T02:54:52;95440.44;;;20.91;60.83
36192;BME280;22233;42.708;23.360;2022-08-03T02:57:20;95439.88;;;20.78;60.82
36192;BME280;22233;42.708;23.360;2022-08-03T02:59:46;95450.06;;;20.70;60.73
36192;BME280;22233;42.708;23.360;2022-08-03T03:02:13;95439.00;;;20.67;60.34
36192;BME280;22233;42.708;23.360;2022-08-03T03:04:41;95442.34;;;20.53;60.51
36192;BME280;22233;42.708;23.360;2022-08-03T03:07:07;95452.88;;;20.44;60.88
36192;BME280;22233;42.708;23.360;2022-08-03T03:09:33;95450.78;;;20.33;61.00
36192;BME280;22233;42.708;23.360;2022-08-03T03:11:59;95447.44;;;20.17;61.58
36192;BME280;22233;42.708;23.360;2022-08-03T03:14:25;95456.84;;;20.16;61.62
36192;BME280;22233;42.708;23.360;2022-08-03T03:16:51;95460.84;;;20.19;61.57
36192;BME280;22233;42.708;23.360;2022-08-03T03:19:17;95459.28;;;19.91;62.35
36192;BME280;22233;42.708;23.360;2022-08-03T03:21:44;95465.31;;;19.73;62.73
36192;BME280;22233;42.708;23.360;2022-08-03T03:24:10;95473.06;;;19.68;62.99
36192;BME280;22233;42.708;23.360;2022-08-03T03:26:37;95463.44;;;19.54;63.32
36192;BME280;22233;42.708;23.360;2022-08-03T03:29:03;95463.88;;;19.56;62.98
36192;BME280;22233;42.708;23.360;2022-08-03T03:31:29;95478.13;;;19.39;64.46
36192;BME280;22233;42.708;23.360;2022-08-03T03:33:57;95473.28;;;19.55;63.73
36192;BME280;22233;42.708;23.360;2022-08-03T03:36:23;95438.03;;;19.42;63.91
36192;BME280;22233;42.708;23.360;2022-08-03T03:38:48;95466.16;;;19.28;65.60
36192;BME280;22233;42.708;23.360;2022-08-03T03:41:14;95474.22;;;19.40;64.87
36192;BME280;22233;42.708;23.360;2022-08-03T03:43:40;95466.41;;;19.42;65.23
36192;BME280;22233;42.708;23.360;2022-08-03T03:46:05;95472.47;;;19.28;65.55
36192;BME280;22233;42.708;23.360;2022-08-03T03:48:31;95467.53;;;19.41;65.15
36192;BME280;22233;42.708;23.360;2022-08-03T03:50:57;95480.25;;;19.49;65.10
36192;BME280;22233;42.708;23.360;2022-08-03T03:53:23;95481.81;;;19.24;65.23
36192;BME280;22233;42.708;23.360;2022-08-03T03:55:51;95482.50;;;19.40;64.38
36192;BME280;22233;42.708;23.360;2022-08-03T03:58:17;95459.41;;;19.48;63.28
36192;BME280;22233;42.708;23.360;2022-08-03T04:00:42;95489.34;;;19.73;63.38
36192;BME280;22233;42.708;23.360;2022-08-03T04:03:09;95484.91;;;19.68;63.57
36192;BME280;22233;42.708;23.360;2022-08-03T04:05:35;95482.41;;;19.83;63.02
36192;BME280;22233;42.708;23.360;2022-08-03T04:08:20;95480.97;;;19.69;63.70
36192;BME280;22233;42.708;23.360;2022-08-03T04:11:18;95486.22;;;19.74;63.33
36192;BME280;22233;42.708;23.360;2022-08-03T04:13:56;95479.00;;;19.93;63.14
36192;BME280;22233;42.708;23.360;2022-08-03T04:16:26;95482.81;;;20.11;62.93
36192;BME280;22233;42.708;23.360;2022-08-03T04:18:58;95489.38;;;20.03;63.11
36192;BME280;22233;42.708;23.360;2022-08-03T04:21:25;95479.69;;;20.13;63.02
36192;BME280;22233;42.708;23.360;2022-08-03T04:23:55;95478.72;;;20.28;62.03
36192;BME280;22233;42.708;23.360;2022-08-03T04:26:26;95488.28;;;20.38;62.69
36192;BME280;22233;42.708;23.360;2022-08-03T04:28:54;95473.09;;;20.21;62.89
36192;BME280;22233;42.708;23.360;2022-08-03T04:31:21;95479.22;;;20.38;62.71
36192;BME280;22233;42.708;23.360;2022-08-03T04:33:47;95492.63;;;20.39;62.68
36192;BME280;22233;42.708;23.360;2022-08-03T04:36:16;95495.03;;;20.41;62.53
36192;BME280;22233;42.708;23.360;2022-08-03T04:39:12;95503.84;;;20.23;63.10
36192;BME280;22233;42.708;23.360;2022-08-03T04:41:38;95496.97;;;20.40;62.81
36192;BME280;22233;42.708;23.360;2022-08-03T04:44:05;95508.59;;;20.53;62.27
36192;BME280;22233;42.708;23.360;2022-08-03T04:46:34;95501.75;;;20.43;62.00
36192;BME280;22233;42.708;23.360;2022-08-03T04:49:01;95488.00;;;20.47;62.00
36192;BME280;22233;42.708;23.360;2022-08-03T04:51:27;95494.69;;;20.46;62.25
36192;BME280;22233;42.708;23.360;2022-08-03T04:53:53;95494.50;;;20.31;63.14
36192;BME280;22233;42.708;23.360;2022-08-03T04:56:19;95508.53;;;20.49;63.54
36192;BME280;22233;42.708;23.360;2022-08-03T04:58:44;95517.13;;;20.44;64.19
36192;BME280;22233;42.708;23.360;2022-08-03T05:01:10;95503.81;;;20.50;63.94
36192;BME280;22233;42.708;23.360;2022-08-03T05:03:35;95507.66;;;20.72;63.44
36192;BME280;22233;42.708;23.360;2022-08-03T05:06:01;95494.19;;;20.67;63.26
36192;BME280;22233;42.708;23.360;2022-08-03T05:08:27;95514.59;;;20.92;62.39
36192;BME280;22233;42.708;23.360;2022-08-03T05:10:52;95522.09;;;20.92;62.02
36192;BME280;22233;42.708;23.360;2022-08-03T05:13:18;95526.44;;;20.93;62.02
36192;BME280;22233;42.708;23.360;2022-08-03T05:15:43;95525.34;;;21.01;61.79
36192;BME280;22233;42.708;23.360;2022-08-03T05:18:09;95523.78;;;21.04;62.79
36192;BME280;22233;42.708;23.360;2022-08-03T05:20:34;95520.63;;;21.02;62.25
36192;BME280;22233;42.708;23.360;2022-08-03T05:22:59;95513.56;;;21.08;62.50
36192;BME280;22233;42.708;23.360;2022-08-03T05:25:26;95521.97;;;21.19;62.85
36192;BME280;22233;42.708;23.360;2022-08-03T05:27:52;95528.31;;;21.23;62.49
36192;BME280;22233;42.708;23.360;2022-08-03T05:30:17;95531.09;;;21.23;61.93
36192;BME280;22233;42.708;23.360;2022-08-03T05:32:43;95534.25;;;20.87;62.89
36192;BME280;22233;42.708;23.360;2022-08-03T05:35:08;95515.84;;;20.65;63.54
36192;BME280;22233;42.708;23.360;2022-08-03T05:37:34;95531.66;;;21.02;62.81
36192;BME280;22233;42.708;23.360;2022-08-03T05:39:59;95515.59;;;21.11;62.39
36192;BME280;22233;42.708;23.360;2022-08-03T05:42:25;95532.22;;;21.18;62.69
36192;BME280;22233;42.708;23.360;2022-08-03T05:44:50;95546.19;;;21.32;62.39
36192;BME280;22233;42.708;23.360;2022-08-03T05:47:16;95543.81;;;21.31;63.00
36192;BME280;22233;42.708;23.360;2022-08-03T05:49:41;95520.13;;;21.30;62.54
36192;BME280;22233;42.708;23.360;2022-08-03T05:52:06;95529.97;;;21.27;61.36
36192;BME280;22233;42.708;23.360;2022-08-03T05:54:32;95525.16;;;21.21;61.92
36192;BME280;22233;42.708;23.360;2022-08-03T05:56:57;95543.34;;;21.63;60.76
36192;BME280;22233;42.708;23.360;2022-08-03T05:59:24;95535.97;;;21.78;61.17
36192;BME280;22233;42.708;23.360;2022-08-03T06:01:51;95547.97;;;21.96;59.84
36192;BME280;22233;42.708;23.360;2022-08-03T06:04:16;95544.09;;;22.04;58.98
36192;BME280;22233;42.708;23.360;2022-08-03T06:06:42;95557.50;;;22.02;58.77
36192;BME280;22233;42.708;23.360;2022-08-03T06:09:08;95546.91;;;22.11;58.92
36192;BME280;22233;42.708;23.360;2022-08-03T06:11:35;95550.03;;;22.06;57.71
36192;BME280;22233;42.708;23.360;2022-08-03T06:14:00;95555.28;;;22.22;57.77
36192;BME280;22233;42.708;23.360;2022-08-03T06:16:26;95557.41;;;22.40;57.88
36192;BME280;22233;42.708;23.360;2022-08-03T06:18:52;95551.09;;;22.43;56.46
36192;BME280;22233;42.708;23.360;2022-08-03T06:21:17;95546.41;;;22.54;57.17
36192;BME280;22233;42.708;23.360;2022-08-03T06:23:43;95545.59;;;22.50;56.27
36192;BME280;22233;42.708;23.360;2022-08-03T06:26:09;95536.88;;;22.44;56.08
36192;BME280;22233;42.708;23.360;2022-08-03T06:28:35;95536.06;;;22.47;55.92
36192;BME280;22233;42.708;23.360;2022-08-03T06:31:00;95547.78;;;22.92;56.02
36192;BME280;22233;42.708;23.360;2022-08-03T06:33:26;95548.69;;;23.22;54.35
36192;BME280;22233;42.708;23.360;2022-08-03T06:35:52;95542.75;;;23.23;54.56
36192;BME280;22233;42.708;23.360;2022-08-03T06:38:18;95542.00;;;23.41;54.49
36192;BME280;22233;42.708;23.360;2022-08-03T06:40:43;95537.63;;;23.40;53.82
36192;BME280;22233;42.708;23.360;2022-08-03T06:43:08;95530.13;;;23.37;53.20
36192;BME280;22233;42.708;23.360;2022-08-03T06:45:34;95524.19;;;23.38;52.97
36192;BME280;22233;42.708;23.360;2022-08-03T06:50:29;95521.78;;;23.33;53.24
36192;BME280;22233;42.708;23.360;2022-08-03T06:52:54;95536.47;;;23.62;53.12
36192;BME280;22233;42.708;23.360;2022-08-03T06:55:20;95530.94;;;23.73;53.02
36192;BME280;22233;42.708;23.360;2022-08-03T06:57:46;95536.53;;;23.95;52.97
36192;BME280;22233;42.708;23.360;2022-08-03T07:00:11;95535.72;;;24.01;52.20
36192;BME280;22233;42.708;23.360;2022-08-03T07:02:38;95529.00;;;23.99;52.49
36192;BME280;22233;42.708;23.360;2022-08-03T07:05:04;95542.06;;;24.23;52.44
36192;BME280;22233;42.708;23.360;2022-08-03T07:07:30;95528.94;;;24.35;51.84
36192;BME280;22233;42.708;23.360;2022-08-03T07:09:58;95536.53;;;24.05;52.32
36192;BME280;22233;42.708;23.360;2022-08-03T07:12:24;95519.81;;;24.52;51.06
36192;BME280;22233;42.708;23.360;2022-08-03T07:14:50;95533.19;;;24.82;50.76
36192;BME280;22233;42.708;23.360;2022-08-03T07:17:15;95521.31;;;24.82;50.73
36192;BME280;22233;42.708;23.360;2022-08-03T07:19:41;95539.00;;;25.13;50.12
36192;BME280;22233;42.708;23.360;2022-08-03T07:22:06;95530.09;;;24.48;50.58
36192;BME280;22233;42.708;23.360;2022-08-03T07:24:33;95522.59;;;24.52;50.97
36192;BME280;22233;42.708;23.360;2022-08-03T07:26:58;95542.41;;;24.61;50.34
36192;BME280;22233;42.708;23.360;2022-08-03T07:29:23;95533.19;;;24.86;49.91
36192;BME280;22233;42.708;23.360;2022-08-03T07:31:49;95534.81;;;24.76;49.46
36192;BME280;22233;42.708;23.360;2022-08-03T07:34:14;95541.84;;;25.02;49.85
36192;BME280;22233;42.708;23.360;2022-08-03T07:36:40;95531.59;;;24.85;50.88
36192;BME280;22233;42.708;23.360;2022-08-03T07:39:05;95536.41;;;24.74;50.92
36192;BME280;22233;42.708;23.360;2022-08-03T07:41:32;95538.53;;;25.36;50.01
36192;BME280;22233;42.708;23.360;2022-08-03T07:43:57;95510.72;;;25.36;49.81
36192;BME280;22233;42.708;23.360;2022-08-03T07:46:23;95541.69;;;25.38;50.02
36192;BME280;22233;42.708;23.360;2022-08-03T07:48:48;95539.53;;;24.86;51.17
36192;BME280;22233;42.708;23.360;2022-08-03T07:51:13;95543.31;;;25.32;49.91
36192;BME280;22233;42.708;23.360;2022-08-03T07:53:39;95537.81;;;25.18;49.96
36192;BME280;22233;42.708;23.360;2022-08-03T07:56:04;95533.00;;;25.33;49.34
36192;BME280;22233;42.708;23.360;2022-08-03T07:58:29;95538.44;;;25.50;48.83
36192;BME280;22233;42.708;23.360;2022-08-03T08:00:55;95538.22;;;25.79;47.94
36192;BME280;22233;42.708;23.360;2022-08-03T08:03:20;95534.53;;;26.00;47.31
36192;BME280;22233;42.708;23.360;2022-08-03T08:05:46;95527.97;;;26.21;48.32
36192;BME280;22233;42.708;23.360;2022-08-03T08:08:11;95521.03;;;26.40;46.78
36192;BME280;22233;42.708;23.360;2022-08-03T08:10:37;95537.91;;;26.64;46.33
36192;BME280;22233;42.708;23.360;2022-08-03T08:13:03;95544.59;;;26.70;46.17
36192;BME280;22233;42.708;23.360;2022-08-03T08:15:29;95540.50;;;26.82;45.59
36192;BME280;22233;42.708;23.360;2022-08-03T08:17:56;95532.88;;;26.86;44.05
36192;BME280;22233;42.708;23.360;2022-08-03T08:20:26;95537.38;;;26.38;44.89
36192;BME280;22233;42.708;23.360;2022-08-03T08:22:52;95531.31;;;26.85;44.68
36192;BME280;22233;42.708;23.360;2022-08-03T08:25:19;95540.53;;;27.13;43.40
36192;BME280;22233;42.708;23.360;2022-08-03T08:27:46;95545.22;;;27.19;42.87
36192;BME280;22233;42.708;23.360;2022-08-03T08:30:13;95541.31;;;27.44;42.89
36192;BME280;22233;42.708;23.360;2022-08-03T08:32:38;95541.81;;;27.66;43.30
36192;BME280;22233;42.708;23.360;2022-08-03T08:35:05;95527.94;;;27.86;43.09
36192;BME280;22233;42.708;23.360;2022-08-03T08:37:31;95537.41;;;27.96;42.55
36192;BME280;22233;42.708;23.360;2022-08-03T08:39:57;95511.19;;;27.89;42.76
36192;BME280;22233;42.708;23.360;2022-08-03T08:42:22;95525.03;;;27.69;42.75
36192;BME280;22233;42.708;23.360;2022-08-03T08:44:48;95533.38;;;27.69;43.18
36192;BME280;22233;42.708;23.360;2022-08-03T08:47:14;95525.91;;;27.90;41.97
36192;BME280;22233;42.708;23.360;2022-08-03T08:49:40;95528.53;;;28.01;40.63
36192;BME280;22233;42.708;23.360;2022-08-03T08:52:09;95529.03;;;28.19;40.84
36192;BME280;22233;42.708;23.360;2022-08-03T08:54:37;95521.28;;;28.27;40.20
36192;BME280;22233;42.708;23.360;2022-08-03T08:57:06;95518.91;;;28.05;40.00
36192;BME280;22233;42.708;23.360;2022-08-03T08:59:32;95528.72;;;28.37;40.02
36192;BME280;22233;42.708;23.360;2022-08-03T09:02:01;95515.91;;;28.40;38.23
36192;BME280;22233;42.708;23.360;2022-08-03T09:04:27;95517.88;;;28.63;38.44
36192;BME280;22233;42.708;23.360;2022-08-03T09:06:53;95510.88;;;28.95;38.66
36192;BME280;22233;42.708;23.360;2022-08-03T09:09:19;95506.56;;;29.10;37.96
36192;BME280;22233;42.708;23.360;2022-08-03T09:11:44;95518.63;;;29.43;37.55
36192;BME280;22233;42.708;23.360;2022-08-03T09:14:10;95510.16;;;29.47;36.70
36192;BME280;22233;42.708;23.360;2022-08-03T09:16:35;95519.91;;;29.59;37.43
36192;BME280;22233;42.708;23.360;2022-08-03T09:19:12;95524.25;;;29.60;37.33
36192;BME280;22233;42.708;23.360;2022-08-03T09:21:38;95520.38;;;29.37;37.50
36192;BME280;22233;42.708;23.360;2022-08-03T09:24:05;95508.16;;;29.47;36.85
36192;BME280;22233;42.708;23.360;2022-08-03T09:26:31;95513.59;;;29.55;36.55
36192;BME280;22233;42.708;23.360;2022-08-03T09:29:02;95513.88;;;29.60;36.71
36192;BME280;22233;42.708;23.360;2022-08-03T09:31:30;95514.53;;;29.84;37.00
36192;BME280;22233;42.708;23.360;2022-08-03T09:33:57;95503.31;;;29.68;36.74
36192;BME280;22233;42.708;23.360;2022-08-03T09:39:12;95516.00;;;29.89;36.03
36192;BME280;22233;42.708;23.360;2022-08-03T09:41:40;95506.63;;;30.12;36.03
36192;BME280;22233;42.708;23.360;2022-08-03T09:44:06;95516.88;;;30.35;36.54
36192;BME280;22233;42.708;23.360;2022-08-03T09:46:50;95508.47;;;30.19;36.05
36192;BME280;22233;42.708;23.360;2022-08-03T09:49:16;95493.50;;;30.25;36.07
36192;BME280;22233;42.708;23.360;2022-08-03T09:51:42;95511.91;;;30.26;35.54
36192;BME280;22233;42.708;23.360;2022-08-03T09:54:08;95507.59;;;30.05;35.47
36192;BME280;22233;42.708;23.360;2022-08-03T09:56:45;95504.34;;;30.40;35.55
36192;BME280;22233;42.708;23.360;2022-08-03T09:59:15;95499.38;;;30.60;34.95
36192;BME280;22233;42.708;23.360;2022-08-03T10:01:47;95492.22;;;30.59;35.09
36192;BME280;22233;42.708;23.360;2022-08-03T10:04:14;95495.72;;;30.63;35.35
36192;BME280;22233;42.708;23.360;2022-08-03T10:06:42;95495.41;;;30.74;34.77
36192;BME280;22233;42.708;23.360;2022-08-03T10:09:14;95487.22;;;30.67;35.58
36192;BME280;22233;42.708;23.360;2022-08-03T10:11:41;95484.06;;;30.65;35.45
36192;BME280;22233;42.708;23.360;2022-08-03T10:14:10;95486.72;;;30.85;35.19
36192;BME280;22233;42.708;23.360;2022-08-03T10:16:44;95452.91;;;30.76;34.35
36192;BME280;22233;42.708;23.360;2022-08-03T10:19:10;95492.97;;;31.18;34.78
36192;BME280;22233;42.708;23.360;2022-08-03T10:21:40;95481.09;;;31.27;35.05
36192;BME280;22233;42.708;23.360;2022-08-03T10:24:08;95496.00;;;31.24;35.28
36192;BME280;22233;42.708;23.360;2022-08-03T10:26:37;95489.00;;;31.58;34.55
36192;BME280;22233;42.708;23.360;2022-08-03T10:29:07;95475.38;;;31.82;34.42
36192;BME280;22233;42.708;23.360;2022-08-03T10:31:40;95488.97;;;31.71;33.84
36192;BME280;22233;42.708;23.360;2022-08-03T10:34:12;95489.75;;;31.71;33.97
36192;BME280;22233;42.708;23.360;2022-08-03T10:36:39;95475.94;;;31.25;34.66
36192;BME280;22233;42.708;23.360;2022-08-03T10:39:05;95477.22;;;30.95;34.84
36192;BME280;22233;42.708;23.360;2022-08-03T10:41:33;95478.06;;;31.34;34.62
36192;BME280;22233;42.708;23.360;2022-08-03T10:44:09;95481.44;;;31.93;33.23
36192;BME280;22233;42.708;23.360;2022-08-03T10:46:37;95480.97;;;31.95;33.88
36192;BME280;22233;42.708;23.360;2022-08-03T10:49:04;95483.22;;;31.87;34.12
36192;BME280;22233;42.708;23.360;2022-08-03T10:51:30;95477.41;;;31.69;34.06
36192;BME280;22233;42.708;23.360;2022-08-03T10:53:57;95471.34;;;31.96;32.98
36192;BME280;22233;42.708;23.360;2022-08-03T10:59:55;95471.78;;;31.94;32.52
36192;BME280;22233;42.708;23.360;2022-08-03T11:02:02;95461.03;;;32.28;33.01
36192;BME280;22233;42.708;23.360;2022-08-03T11:04:28;95460.75;;;32.13;32.91
36192;BME280;22233;42.708;23.360;2022-08-03T11:09:46;95452.19;;;32.51;32.66
36192;BME280;22233;42.708;23.360;2022-08-03T11:12:28;95467.41;;;32.06;33.46
36192;BME280;22233;42.708;23.360;2022-08-03T11:14:56;95465.56;;;31.99;32.60
36192;BME280;22233;42.708;23.360;2022-08-03T11:17:22;95453.94;;;31.62;32.92
36192;BME280;22233;42.708;23.360;2022-08-03T11:19:49;95449.56;;;31.49;34.35
36192;BME280;22233;42.708;23.360;2022-08-03T11:22:15;95442.56;;;31.92;33.91
36192;BME280;22233;42.708;23.360;2022-08-03T11:40:45;95435.31;;;32.95;31.33
36192;BME280;22233;42.708;23.360;2022-08-03T11:46:04;95433.72;;;33.38;30.51
36192;BME280;22233;42.708;23.360;2022-08-03T11:48:34;95440.75;;;33.12;29.85
36192;BME280;22233;42.708;23.360;2022-08-03T11:51:04;95426.16;;;33.35;31.42
36192;BME280;22233;42.708;23.360;2022-08-03T11:53:30;95433.28;;;33.58;30.22
36192;BME280;22233;42.708;23.360;2022-08-03T11:56:01;95429.31;;;33.69;30.51
36192;BME280;22233;42.708;23.360;2022-08-03T11:58:27;95422.31;;;34.01;30.37
36192;BME280;22233;42.708;23.360;2022-08-03T12:01:03;95420.44;;;33.89;30.27
36192;BME280;22233;42.708;23.360;2022-08-03T12:03:32;95419.88;;;34.21;29.61
36192;BME280;22233;42.708;23.360;2022-08-03T12:05:58;95427.13;;;33.82;29.95
36192;BME280;22233;42.708;23.360;2022-08-03T12:10:51;95412.31;;;34.09;29.64
36192;BME280;22233;42.708;23.360;2022-08-03T12:13:18;95419.50;;;34.01;28.74
36192;BME280;22233;42.708;23.360;2022-08-03T12:15:50;95415.09;;;33.81;29.38
36192;BME280;22233;42.708;23.360;2022-08-03T12:18:17;95416.38;;;33.49;29.36
36192;BME280;22233;42.708;23.360;2022-08-03T12:20:43;95397.16;;;34.16;29.00
36192;BME280;22233;42.708;23.360;2022-08-03T12:23:10;95408.28;;;34.47;28.13
36192;BME280;22233;42.708;23.360;2022-08-03T12:25:37;95395.09;;;34.35;28.89
36192;BME280;22233;42.708;23.360;2022-08-03T12:28:19;95416.09;;;34.71;28.80
36192;BME280;22233;42.708;23.360;2022-08-03T12:30:51;95404.38;;;34.35;29.09
36192;BME280;22233;42.708;23.360;2022-08-03T12:33:26;95409.69;;;34.42;29.22
36192;BME280;22233;42.708;23.360;2022-08-03T12:36:02;95416.22;;;34.12;29.06
36192;BME280;22233;42.708;23.360;2022-08-03T12:38:29;95402.69;;;33.70;29.78
36192;BME280;22233;42.708;23.360;2022-08-03T12:41:07;95403.88;;;34.18;28.89
36192;BME280;22233;42.708;23.360;2022-08-03T12:43:35;95399.66;;;34.23;28.32
36192;BME280;22233;42.708;23.360;2022-08-03T12:46:12;95387.59;;;34.41;27.35
36192;BME280;22233;42.708;23.360;2022-08-03T12:49:04;95395.75;;;34.67;27.71
36192;BME280;22233;42.708;23.360;2022-08-03T12:54:20;95388.84;;;34.68;27.58
36192;BME280;22233;42.708;23.360;2022-08-03T12:57:08;95393.91;;;35.15;27.34
36192;BME280;22233;42.708;23.360;2022-08-03T12:59:40;95374.63;;;35.47;27.18
36192;BME280;22233;42.708;23.360;2022-08-03T13:02:20;95371.88;;;35.71;27.00
36192;BME280;22233;42.708;23.360;2022-08-03T13:04:47;95381.34;;;36.07;25.20
36192;BME280;22233;42.708;23.360;2022-08-03T13:07:13;95372.59;;;36.05;25.48
36192;BME280;22233;42.708;23.360;2022-08-03T13:09:47;95374.03;;;36.25;26.33
36192;BME280;22233;42.708;23.360;2022-08-03T13:12:17;95374.66;;;35.80;27.41
36192;BME280;22233;42.708;23.360;2022-08-03T13:14:45;95372.84;;;35.92;27.83
36192;BME280;22233;42.708;23.360;2022-08-03T13:17:11;95388.00;;;36.04;27.45
36192;BME280;22233;42.708;23.360;2022-08-03T13:19:37;95392.38;;;36.05;27.78
36192;BME280;22233;42.708;23.360;2022-08-03T13:24:43;95374.16;;;35.82;27.47
36192;BME280;22233;42.708;23.360;2022-08-03T13:27:09;95386.81;;;35.63;28.20
36192;BME280;22233;42.708;23.360;2022-08-03T13:29:35;95379.50;;;35.47;28.38
36192;BME280;22233;42.708;23.360;2022-08-03T13:32:01;95385.34;;;35.76;27.63
36192;BME280;22233;42.708;23.360;2022-08-03T13:34:27;95378.06;;;36.09;27.28
36192;BME280;22233;42.708;23.360;2022-08-03T13:36:52;95383.53;;;36.12;27.26
36192;BME280;22233;42.708;23.360;2022-08-03T13:39:18;95368.69;;;36.03;26.85